Terminal Aerodrome Forecast
Issued by NWS Missoula, MT

Home | Current Version | Previous Version | Text Only | Print | Product List | Glossary On
Versions: 1 2 3 4 5 6 7 8 9 10 11 12 13 14 15 16
333
FTUS45 KMSO 061724
TAFGPI
TAF
KGPI 061724Z 0618/0718 21016G25KT P6SM VCSH BKN050
     FM070000 21012KT P6SM VCSH SCT005 OVC040
     FM070500 19003KT P6SM VCFG SCT005=

USA.gov is the U.S. government's official web portal to all federal, state and local government web resources and services.